Aviation Digital Data Service (ADDS)

Output produced by METARs form (0635 UTC 20 October 2018)
found at http://www.aviationweather.gov/metar/data/
 
GQPP 200600Z 36011KT CAVOK 18/16 Q1011 NOSIG
TAF GQPP 200500Z 2006/2106 36012KT 8000 NSC